Airport View

Enter AWOS ICAO identifier for current METAR.

ex. KFNL

KOJA 212335Z AUTO 18005KT 10SM OVC047 28/21 A2994 RMK AO2

21 Sep 2019 23:54

Frequency: 118.575

Phone: 580-772-7020

Other Area AWOS: KCLK - KJWG - KCSM - KRQO

KCSM 211723Z 2118/2218 18019G26KT P6SM BKN018 FM212100 19021G29KT P6SM SCT035 BKN050 PROB30 2205/2209 2SM +TSRA OVC030CB